This is the latest recevied weather packets stored in our database for station/object OE-11138. If no packets are shown the sender has not sent any weather packets the latest 10 day(s).
| Time | Temp. | Humidity | Pressure | Rain* | Wind** | Luminosity | Snow |
|---|---|---|---|---|---|---|---|
| 1787886322 | 15° C | 61% | 718.3 hPa | 0 mm | - | 0 W/m² | - |
| 1787885724 | 15° C | 57% | 718.2 hPa | 0 mm | - | 0 W/m² | - |
| 1787884897 | 15.56° C | 55% | 718.3 hPa | 0 mm | - | 0 W/m² | - |
| 1787884524 | 15.56° C | 52% | 718.5 hPa | 0 mm | - | 0 W/m² | - |
| 1787883924 | 15.56° C | 59% | 718.2 hPa | 0 mm | - | 0 W/m² | - |
| 1787883097 | 15° C | 60% | 718.4 hPa | 0 mm | - | 0 W/m² | - |
| 1787882724 | 16.11° C | 50% | 718.6 hPa | 0 mm | - | 0 W/m² | - |
| 1787881297 | 15.56° C | 59% | 718.1 hPa | 0 mm | - | 0 W/m² | - |
| 1787880924 | 16.11° C | 54% | 718.4 hPa | 0 mm | - | 0 W/m² | - |
| 1787880324 | 16.11° C | 53% | 718.7 hPa | 0 mm | - | 0 W/m² | - |
| 1787879496 | 16.11° C | 53% | 718.8 hPa | 0 mm | - | 0 W/m² | - |
| 1787879123 | 15° C | 62% | 718.9 hPa | 0 mm | - | 0 W/m² | - |
| 1787878524 | 15° C | 61% | 718.7 hPa | 0 mm | - | 0 W/m² | - |
| 1787877696 | 14.44° C | 67% | 718.7 hPa | 0 mm | - | 0 W/m² | - |
| 1787877324 | 14.44° C | 62% | 718.8 hPa | 0 mm | - | 0 W/m² | - |
| 1787876724 | 13.89° C | 69% | 718.7 hPa | 0 mm | - | 0 W/m² | - |
| 1787875896 | 13.89° C | 70% | 718.7 hPa | 0 mm | - | 0 W/m² | - |
| 1787875523 | 13.89° C | 70% | 718.9 hPa | 0 mm | - | 0 W/m² | - |
| 1787874924 | 13.89° C | 71% | 718.8 hPa | 0 mm | - | 0 W/m² | - |
| 1787874096 | 13.89° C | 72% | 718.9 hPa | 0 mm | - | 0 W/m² | - |
| 1787873724 | 13.89° C | 70% | 718.9 hPa | 0 mm | - | 0 W/m² | - |
| 1787873123 | 14.44° C | 70% | 718.9 hPa | 0 mm | - | 0 W/m² | - |
| 1787872524 | 13.89° C | 71% | 719 hPa | 0 mm | - | 0 W/m² | - |
| 1787871923 | 13.89° C | 72% | 719.1 hPa | 0 mm | - | 0 W/m² | - |
| 1787870497 | 14.44° C | 70% | 719.2 hPa | 0 mm | - | 0 W/m² | - |
* Rain latest hour (hover to see other rain measurements)
** Current wind speed in m/s (hover to see current wind gust speed)